Current Month

Pierce College

Hourly Data | America/Los_Angeles
as of 1/26/22 12:16 AM PST
Date & Time Temp Max (°F) Temp Min (°F) RH (%) Dew Pt (°F) Latest Rain (In) Soil Temp (°F) Soil Moist (%) Wind Spd (mph) Wind Dir (°) Wind Gust (mph) Leaf Wet Raw (mV) Net Radiation (W/m²) Evap Pan Max Wind (mph) Evap Pan H2O Max Temp (°F) Evap Pan Level (In)
1/26/22 - 0000 43.7 42.1 80 37.2 0.00 58.0 47.7 0.3 SSE | 160 1.6 285 -56 1.2 53.8 6.7
1/25/22 - 2300 45.1 43.5 78 38.0 0.00 58.1 47.8 0.5 SSE | 166 2.0 274 -62 2.2 56.0 6.7
1/25/22 - 2200 46.8 44.6 74 37.7 0.00 58.5 47.8 0.4 SSE | 160 1.6 272 -65 0.8 58.7 6.7
1/25/22 - 2100 48.6 46.7 69 38.0 0.00 58.2 47.9 0.4 SSE | 159 1.4 271 -67 0.6 60.8 6.7
1/25/22 - 2000 50.9 48.2 64 38.0 0.00 58.2 47.9 0.7 SSE | 163 2.7 269 -68 1.5 64.1 6.7
1/25/22 - 1900 55.5 50.8 55 37.3 0.00 57.8 47.9 1.0 S | 175 2.7 269 -71 1.7 66.0 6.7
1/25/22 - 1800 62.2 55.4 44 36.4 0.00 57.9 47.9 0.8 S | 186 3.2 267 -75 1.4 69.8 6.7
1/25/22 - 1700 69.2 62.2 31 35.0 0.00 57.1 47.9 1.3 S | 189 4.7 265 -38 3.4 71.2 6.7
1/25/22 - 1600 74.3 69.0 23 32.1 0.00 57.3 47.8 1.3 SSE | 150 4.6 264 94 3.2 72.0 6.7
1/25/22 - 1500 72.8 69.7 23 31.6 0.00 57.0 47.6 1.4 ENE | 71 5.7 263 220 3.5 68.7 6.7
1/25/22 - 1400 72.1 68.9 26 33.9 0.00 56.9 47.6 1.9 ENE | 76 4.9 264 308 3.7 64.8 6.7
1/25/22 - 1300 71.7 68.6 26 33.2 0.00 57.0 47.5 2.3 NE | 51 5.5 264 359 2.8 62.2 6.7
1/25/22 - 1200 70.4 67.3 23 29.4 0.00 56.1 47.3 1.5 SSE | 150 4.6 264 363 3.7 55.8 6.7
1/25/22 - 1100 67.7 59.5 34 34.9 0.00 56.2 47.3 0.6 NW | 317 3.8 264 318 3.2 51.3 6.7
1/25/22 - 1000 60.0 53.8 45 36.4 0.00 56.4 47.3 1.0 E | 93 3.7 266 235 2.9 46.6 6.7
1/25/22 - 0900 53.9 41.7 72 39.6 0.00 57.0 47.5 0.2 NNE | 25 1.8 271 167 0.7 44.1 6.7
1/25/22 - 0800 41.8 37.9 90 36.4 0.00 57.6 47.6 0.6 SSE | 161 3.1 352 5 1.4 44.3 6.7
1/25/22 - 0700 38.7 37.2 90 35.4 0.00 57.3 47.6 0.3 SSE | 151 1.9 375 -16 1.2 45.6 6.7
1/25/22 - 0600 39.6 38.5 89 36.1 0.00 57.8 47.7 0.3 SSE | 157 1.6 362 -18 1.4 47.0 6.7
1/25/22 - 0500 40.0 38.6 87 35.8 0.00 58.0 47.8 0.4 SSE | 163 2.1 344 -21 1.6 48.2 6.7
1/25/22 - 0400 41.6 39.5 87 36.8 0.00 58.4 47.8 0.4 SSE | 155 2.2 328 -25 0.6 48.8 6.7
1/25/22 - 0300 42.0 41.0 85 37.4 0.00 58.2 47.9 0.4 SSE | 167 2.1 303 -33 1.3 50.1 6.7
1/25/22 - 0200 43.3 41.0 81 36.6 0.00 58.0 48.0 0.3 SSE | 167 1.7 280 -48 1.1 52.0 6.7
1/25/22 - 0100 44.8 43.2 76 37.1 0.00 58.7 48.1 0.2 SSE | 166 1.3 274 -58 0.8 53.9 6.7
1/25/22 - 0000 45.9 44.3 67 34.8 0.00 58.5 48.1 0.5 SSE | 158 1.2 270 -59 0.0 56.0 6.7
1/24/22 - 2300 46.7 45.0 62 33.7 0.00 58.4 48.2 0.3 SSE | 161 1.4 269 -61 0.2 58.2 6.7
1/24/22 - 2200 48.8 46.7 58 33.6 0.00 58.5 48.3 0.4 SSE | 167 1.9 268 -63 1.3 58.8 6.8
1/24/22 - 2100 50.9 48.4 50 31.6 0.00 58.7 48.3 0.5 S | 169 1.9 267 -64 1.6 61.2 6.8
1/24/22 - 2000 52.9 50.8 44 30.8 0.00 58.4 48.3 0.5 SSE | 155 2.1 267 -66 0.0 65.1 6.8
1/24/22 - 1900 56.8 52.7 39 30.4 0.00 58.4 48.3 0.7 S | 174 2.3 266 -71 1.5 68.4 6.8
1/24/22 - 1800 64.4 56.5 32 30.0 0.00 58.7 48.3 0.6 SSE | 167 2.8 265 -77 1.6 71.0 6.8
1/24/22 - 1700 69.8 64.3 23 28.4 0.00 58.0 48.3 2.0 S | 176 6.4 264 -42 3.8 72.6 6.8
1/24/22 - 1600 73.4 69.4 20 28.6 0.00 57.6 48.2 2.7 ESE | 108 7.1 263 93 4.2 73.7 6.8
1/24/22 - 1500 75.6 72.4 19 28.8 0.00 57.5 48.1 2.7 SE | 124 7.3 262 216 4.2 71.6 6.8
1/24/22 - 1400 75.7 73.8 19 29.9 0.00 57.1 47.9 2.5 NE | 42 6.2 262 299 3.4 67.9 6.8
1/24/22 - 1300 76.1 73.5 15 23.9 0.00 57.0 47.7 1.6 ENE | 69 4.2 262 351 2.7 63.8 6.8
1/24/22 - 1200 74.5 72.7 14 21.5 0.00 56.8 47.6 1.2 NNE | 14 4.4 262 353 2.7 59.1 6.8
1/24/22 - 1100 73.3 69.4 14 19.6 0.00 56.6 47.6 0.9 NNE | 20 3.0 262 308 2.0 55.5 6.8
1/24/22 - 1000 69.8 63.7 21 25.3 0.00 57.0 47.6 0.5 E | 96 2.1 262 224 2.1 50.3 6.8
1/24/22 - 0900 63.9 51.0 32 27.3 0.00 57.8 47.8 0.3 SE | 130 2.5 262 114 1.4 47.5 6.8
1/24/22 - 0800 50.8 43.1 42 23.6 0.00 57.9 47.8 0.4 SSE | 165 2.0 266 -34 1.9 48.2 6.8
1/24/22 - 0700 47.0 44.1 38 21.6 0.00 58.1 47.9 0.6 S | 172 2.0 266 -60 1.9 49.1 6.8
1/24/22 - 0600 50.0 46.8 32 20.1 0.00 57.4 47.9 0.9 SSE | 154 3.0 266 -64 1.8 50.0 6.8
1/24/22 - 0500 57.0 48.8 25 17.5 0.00 58.3 48.1 1.1 SSE | 156 2.8 265 -66 2.0 52.1 6.8
1/24/22 - 0400 59.5 51.6 21 15.9 0.00 58.0 48.1 1.8 SSW | 198 5.6 264 -69 3.4 52.2 6.8
1/24/22 - 0300 59.6 51.6 21 15.9 0.00 58.0 48.2 1.9 SW | 221 6.0 264 -68 4.2 53.4 6.8
1/24/22 - 0200 60.0 52.5 19 14.5 0.00 58.3 48.2 0.8 SSW | 196 3.6 264 -70 3.1 55.6 6.8
1/24/22 - 0100 61.1 53.2 18 14.5 0.00 58.0 48.2 1.5 WSW | 245 5.0 264 -73 3.3 57.1 6.9
1/24/22 - 0000 61.6 58.6 15 12.8 0.00 58.3 48.3 2.6 W | 270 7.3 263 -77 4.9 57.8 6.9
1/23/22 - 2300 60.6 59.5 16 14.3 0.00 58.8 48.3 2.0 W | 262 4.9 264 -76 3.6 59.0 6.9
1/23/22 - 2200 60.7 59.4 18 16.2 0.00 58.6 48.3 1.9 W | 276 5.3 264 -78 4.3 60.8 6.9
1/23/22 - 2100 62.4 59.8 17 16.5 0.00 58.4 48.4 1.3 WNW | 291 4.6 264 -81 3.2 63.1 6.9
1/23/22 - 2000 64.0 62.2 17 18.0 0.00 58.0 48.3 0.7 NNW | 334 4.4 263 -83 4.4 66.1 6.9
1/23/22 - 1900 67.0 62.9 17 18.6 0.00 58.2 48.4 1.4 NW | 304 8.7 263 -85 4.1 69.4 6.9
1/23/22 - 1800 68.8 66.3 15 18.7 0.00 58.2 48.3 2.3 N | 5 7.9 263 -90 3.5 70.9 6.9
1/23/22 - 1700 71.6 68.7 15 19.9 0.00 58.0 48.3 3.5 N | 5 10.0 262 -47 5.0 74.4 6.9
1/23/22 - 1600 74.5 71.6 14 20.7 0.00 57.9 48.2 2.7 N | 355 10.4 262 90 4.7 74.3 6.9
1/23/22 - 1500 74.7 73.8 13 21.1 0.00 57.4 48.0 3.0 N | 1 9.7 262 214 6.0 73.8 6.9
1/23/22 - 1400 75.4 73.2 14 21.8 0.00 56.9 47.9 3.3 N | 360 12.3 262 301 6.2 69.0 6.9
1/23/22 - 1300 74.1 72.6 14 21.1 0.00 57.0 47.8 3.5 N | 3 11.9 262 354 5.1 67.3 7.0
1/23/22 - 1200 73.4 70.5 14 20.3 0.00 56.8 47.6 3.1 N | 3 11.1 262 354 9.0 63.1 7.0
1/23/22 - 1100 71.2 67.9 15 19.4 0.00 56.9 47.7 3.7 N | 3 11.6 262 306 4.6 58.5 7.0
1/23/22 - 1000 68.6 64.5 16 19.2 0.00 56.5 47.7 3.7 N | 8 11.0 262 218 4.5 54.2 7.0
1/23/22 - 0900 64.6 60.4 18 18.1 0.00 56.9 47.8 2.7 N | 6 10.1 262 100 3.4 51.1 7.0
1/23/22 - 0800 60.6 58.3 18 16.2 0.00 56.8 47.9 2.3 N | 2 6.6 264 -52 4.6 50.0 7.0
1/23/22 - 0700 59.0 58.2 18 15.5 0.00 57.5 47.9 2.2 N | 354 8.8 264 -76 3.9 50.0 7.0
1/23/22 - 0600 59.2 58.4 18 15.6 0.00 57.5 47.9 2.9 N | 359 10.0 264 -76 5.2 49.9 7.0
1/23/22 - 0500 59.3 58.0 18 15.6 0.00 57.5 48.0 2.7 N | 6 8.4 264 -75 3.5 51.2 7.0
1/23/22 - 0400 59.0 57.4 18 15.4 0.00 57.3 48.1 1.5 NNW | 343 6.2 264 -74 3.7 51.4 7.0
1/23/22 - 0300 59.6 55.9 18 15.3 0.00 57.4 48.1 1.1 NNW | 337 5.5 264 -71 2.8 51.7 7.0
1/23/22 - 0200 57.0 53.1 22 17.2 0.00 57.6 48.2 0.9 SSE | 161 4.4 264 -69 3.0 53.0 7.0
1/23/22 - 0100 59.6 56.3 19 16.7 0.00 58.2 48.2 2.6 NNW | 329 9.9 264 -75 4.6 54.7 7.0
1/23/22 - 0000 60.4 57.5 19 16.6 0.00 58.4 48.2 0.7 NNW | 340 5.2 264 -74 3.1 55.5 7.0
1/22/22 - 2300 60.1 52.2 24 19.1 0.00 57.9 48.3 1.6 WNW | 294 6.4 264 -71 4.1 56.0 7.0
1/22/22 - 2200 58.6 53.5 24 19.6 0.00 58.6 48.3 1.6 SW | 219 4.9 265 -71 3.4 57.4 7.0
1/22/22 - 2100 60.4 55.3 21 18.3 0.00 58.7 48.3 2.2 S | 171 8.6 264 -75 6.2 59.0 7.0
1/22/22 - 2000 61.4 57.1 20 18.7 0.00 57.7 48.3 1.1 ESE | 109 5.9 264 -78 2.4 60.7 7.0
1/22/22 - 1900 63.4 58.7 18 18.1 0.00 57.9 48.4 2.1 SSE | 152 6.7 264 -84 3.9 63.1 7.0
1/22/22 - 1800 65.1 62.7 17 18.0 0.00 57.6 48.3 3.1 NE | 36 11.0 263 -88 4.3 65.3 7.0
1/22/22 - 1700 66.6 64.9 16 18.0 0.00 57.9 48.3 5.0 NNE | 13 16.8 263 -44 6.1 67.8 7.1
1/22/22 - 1600 68.3 66.5 15 18.0 0.00 57.5 48.3 5.3 NNE | 23 15.3 262 90 7.6 68.6 7.1
1/22/22 - 1500 68.7 67.3 14 17.2 0.00 57.3 48.2 4.4 NNE | 24 12.1 262 216 5.1 68.5 7.1
1/22/22 - 1400 67.7 66.2 14 16.2 0.00 56.6 48.1 5.6 NNE | 14 17.3 262 307 7.9 66.7 7.1
1/22/22 - 1300 67.9 65.9 14 16.4 0.00 57.4 48.0 5.4 NNE | 18 13.2 262 357 5.8 64.0 7.1
1/22/22 - 1200 66.4 63.7 15 16.3 0.00 57.2 47.9 5.5 NNE | 16 17.9 262 360 6.9 60.2 7.1
1/22/22 - 1100 65.4 63.3 15 16.3 0.00 57.7 47.9 4.7 N | 11 17.8 262 309 5.2 56.4 7.1
1/22/22 - 1000 65.1 60.0 17 17.1 0.00 57.4 47.8 2.4 NW | 318 9.6 262 218 7.0 53.7 7.1
1/22/22 - 0900 60.1 57.9 20 17.8 0.00 57.9 48.0 4.1 W | 264 9.1 263 96 6.9 50.8 7.1
1/22/22 - 0800 58.0 54.6 21 16.8 0.00 57.3 48.1 1.5 WNW | 286 5.5 264 -56 4.1 49.2 7.1
1/22/22 - 0700 56.1 52.5 23 17.2 0.00 57.4 48.1 2.2 SW | 226 8.1 264 -76 7.1 49.5 7.1
1/22/22 - 0600 57.2 55.4 21 17.1 0.00 57.4 48.2 1.8 WNW | 290 5.9 264 -80 4.2 50.8 7.2
1/22/22 - 0500 57.8 56.2 21 17.2 0.00 57.0 48.2 2.6 NNE | 28 9.2 264 -81 5.0 52.0 7.2
1/22/22 - 0400 58.0 56.8 20 17.0 0.00 57.4 48.2 2.8 ENE | 62 10.7 264 -81 10.3 52.7 7.2
1/22/22 - 0300 58.6 55.7 21 17.2 0.00 57.8 48.2 1.3 SE | 125 5.8 264 -79 3.8 54.0 7.2
1/22/22 - 0200 59.7 58.3 19 16.6 0.00 57.5 48.3 2.8 ESE | 109 9.6 264 -82 9.2 55.2 7.2
1/22/22 - 0100 60.1 59.3 18 16.5 0.00 58.2 48.3 4.7 NNE | 24 11.9 264 -84 6.3 56.3 7.2
1/22/22 - 0000 60.7 59.9 18 16.9 0.00 58.1 48.4 4.1 N | 6 14.4 264 -82 4.8 57.5 7.2
1/21/22 - 2300 61.5 60.2 18 16.7 0.00 58.4 48.4 2.6 NNE | 22 10.0 264 -81 7.1 58.3 7.2
1/21/22 - 2200 62.3 60.8 17 16.3 0.00 57.8 48.4 2.4 NE | 35 9.4 264 -83 4.0 59.7 7.2
1/21/22 - 2100 63.4 61.8 16 16.2 0.00 58.1 48.4 2.3 NE | 38 9.6 264 -85 5.3 61.2 7.2
1/21/22 - 2000 64.6 63.1 16 16.9 0.00 57.7 48.5 3.0 NE | 43 11.0 264 -88 4.5 62.6 7.2
1/21/22 - 1900 65.3 64.2 16 17.3 0.00 57.9 48.4 4.2 NNE | 28 11.7 264 -89 5.2 63.4 7.2
1/21/22 - 1800 66.1 64.8 15 16.6 0.00 57.7 48.4 4.5 NNE | 18 11.9 264 -90 5.4 65.6 7.2
1/21/22 - 1700 69.1 65.8 13 15.0 0.00 57.8 48.4 5.1 NNE | 33 13.3 263 -45 6.0 68.1 7.2
1/21/22 - 1600 71.4 69.1 13 17.1 0.00 57.0 48.4 5.6 NNE | 25 14.4 263 76 6.5 69.6 7.3
1/21/22 - 1500 72.2 71.0 17 24.9 0.00 56.6 48.3 6.2 NNE | 16 16.6 263 215 7.5 68.9 7.3
1/21/22 - 1400 72.8 71.2 19 27.7 0.00 56.1 48.2 5.6 N | 10 14.9 263 304 5.5 66.8 7.3
1/21/22 - 1300 72.7 71.3 20 28.6 0.00 56.6 48.1 6.1 N | 8 16.6 264 357 7.6 63.1 7.3
1/21/22 - 1200 72.6 68.0 25 33.1 0.00 56.7 47.9 2.4 N | 354 13.7 264 356 7.0 59.2 7.3
1/21/22 - 1100 68.5 63.5 28 32.2 0.00 57.5 47.9 1.9 SW | 222 5.7 264 310 4.5 54.4 7.3
1/21/22 - 1000 64.2 55.7 35 32.1 0.00 57.9 48.0 0.6 SE | 136 2.8 265 224 2.7 50.3 7.3
1/21/22 - 0900 55.8 46.1 52 35.0 0.00 58.5 48.1 0.4 WNW | 298 3.2 267 109 2.0 48.1 7.3
1/21/22 - 0800 46.1 39.6 71 33.1 0.00 56.8 48.2 0.5 SSE | 156 2.5 272 -38 1.6 47.3 7.3
1/21/22 - 0700 40.7 39.7 74 32.4 0.00 57.1 48.3 0.3 SSE | 159 1.3 273 -54 1.0 47.4 7.3
1/21/22 - 0600 41.3 40.3 73 32.6 0.00 57.1 48.3 0.3 SSE | 150 2.1 272 -55 1.4 48.9 7.3
1/21/22 - 0500 42.5 40.8 69 32.4 0.00 57.5 48.4 0.1 S | 171 1.2 272 -55 0.0 50.8 7.3
1/21/22 - 0400 42.6 41.5 68 32.4 0.00 57.6 48.4 0.4 SSE | 160 1.8 272 -56 1.1 52.3 7.3
1/21/22 - 0300 44.6 42.0 65 32.2 0.00 58.0 48.5 0.3 SSE | 150 1.5 270 -57 0.7 54.0 7.3
1/21/22 - 0200 45.8 44.0 62 32.8 0.00 58.3 48.6 0.4 SSE | 161 2.1 270 -58 1.1 56.0 7.3
1/21/22 - 0100 46.1 45.0 61 33.0 0.00 58.1 48.6 0.7 S | 172 2.3 270 -60 1.7 57.3 7.3
1/21/22 - 0000 48.1 45.9 57 32.5 0.00 58.6 48.7 0.7 SSE | 148 2.6 269 -61 1.5 58.3 7.3
1/20/22 - 2300 49.9 47.9 52 31.7 0.00 58.2 48.8 0.4 S | 186 1.8 269 -62 1.9 61.7 7.3
1/20/22 - 2200 52.0 49.8 46 31.2 0.00 58.6 48.8 0.6 SSE | 158 2.6 268 -64 1.1 64.9 7.3
1/20/22 - 2100 55.1 50.8 42 30.6 0.00 58.3 48.8 0.7 S | 170 3.5 267 -67 2.2 66.8 7.3
1/20/22 - 2000 59.5 54.4 36 29.7 0.00 58.4 48.9 0.8 SSE | 155 2.7 266 -71 1.9 67.5 7.3
1/20/22 - 1900 67.6 59.1 24 26.0 0.00 58.1 48.9 1.6 S | 185 3.8 266 -77 3.2 70.6 7.3
1/20/22 - 1800 70.5 67.4 18 23.9 0.00 57.7 48.9 0.7 NNW | 338 4.1 264 -88 3.3 73.0 7.4
1/20/22 - 1700 74.1 70.3 17 24.7 0.00 57.7 48.7 1.5 NNW | 343 6.1 264 -51 7.9 74.7 7.4
1/20/22 - 1600 75.6 73.7 15 24.4 0.00 57.4 48.6 2.9 N | 0 11.7 263 85 4.2 75.0 7.4
1/20/22 - 1500 76.5 75.2 16 25.9 0.00 56.6 48.5 2.8 N | 357 9.2 263 210 4.7 73.7 7.4
1/20/22 - 1400 76.7 75.0 16 26.4 0.00 56.1 48.4 3.5 N | 9 11.2 263 299 4.5 70.8 7.4
1/20/22 - 1300 75.8 74.4 17 26.7 0.00 56.1 48.3 3.2 N | 0 10.3 264 352 4.6 67.6 7.4
1/20/22 - 1200 75.0 73.3 17 26.2 0.00 56.9 48.2 3.4 N | 360 14.2 264 356 4.9 62.5 7.4
1/20/22 - 1100 74.3 69.0 21 30.0 0.00 56.7 48.1 1.8 NW | 304 6.2 264 311 4.8 58.1 7.4
1/20/22 - 1000 69.6 64.1 31 35.7 0.00 56.9 48.1 1.5 WSW | 255 4.8 266 226 4.2 53.3 7.4
1/20/22 - 0900 64.2 53.2 50 39.7 0.00 57.1 48.3 0.6 ESE | 122 2.5 267 107 1.4 52.3 7.4
1/20/22 - 0800 53.2 47.3 58 35.0 0.00 56.9 48.4 1.2 SSE | 154 3.7 271 -44 2.4 51.6 7.4
1/20/22 - 0700 50.4 48.0 56 34.2 0.00 57.2 48.5 1.5 SSE | 158 3.8 272 -60 2.5 52.3 7.4
1/20/22 - 0600 55.8 48.8 52 34.3 0.00 57.6 48.5 1.8 S | 188 6.3 272 -31 2.4 52.6 7.4
1/20/22 - 0500 50.5 46.4 64 36.8 0.00 58.1 48.6 1.6 SSE | 159 3.9 273 -14 2.7 52.9 7.4
1/20/22 - 0400 47.2 43.1 88 41.2 0.00 58.4 48.6 1.1 SSE | 155 3.0 312 -14 2.4 55.3 7.4
1/20/22 - 0300 44.2 43.0 94 41.9 0.00 58.8 48.8 0.8 SSE | 156 2.8 373 -15 2.2 57.4 7.4
1/20/22 - 0200 44.7 43.3 93 42.2 0.00 58.6 48.8 0.4 SSE | 168 2.1 374 -16 1.5 58.4 7.4
1/20/22 - 0100 46.2 44.2 92 43.3 0.00 58.4 48.8 0.4 S | 176 2.3 378 -17 2.2 59.7 7.4
1/20/22 - 0000 47.0 45.4 92 43.8 0.00 58.4 48.9 0.6 SSE | 166 2.5 370 -19 1.4 63.1 7.4
1/19/22 - 2300 47.9 46.3 91 44.6 0.00 59.1 49.0 0.5 S | 175 2.0 381 -23 1.4 63.2 7.4
1/19/22 - 2200 49.9 47.6 89 45.7 0.00 58.2 49.0 0.3 S | 188 1.8 355 -31 1.3 64.5 7.4
1/19/22 - 2100 52.9 49.8 84 46.7 0.00 58.6 49.0 0.2 SE | 146 2.2 324 -54 1.7 67.3 7.4
1/19/22 - 2000 55.0 52.7 79 47.8 0.00 59.5 49.1 0.9 SSW | 210 3.4 278 -67 2.7 70.2 7.4
1/19/22 - 1900 57.3 54.8 75 48.4 0.00 61.3 49.1 2.3 WSW | 238 5.7 273 -70 4.0 72.4 7.4
1/19/22 - 1800 60.5 57.1 71 49.0 0.00 61.4 49.1 2.2 SSW | 199 5.4 272 -70 4.1 83.1 7.5
1/19/22 - 1700 64.6 60.4 61 48.9 0.00 61.6 49.0 1.2 SE | 140 3.5 270 -34 2.1 88.1 7.5
1/19/22 - 1600 67.9 64.5 51 47.8 0.00 61.4 49.0 1.1 SSW | 193 3.5 268 82 2.8 88.2 7.5
1/19/22 - 1500 67.9 64.4 50 46.9 0.00 61.2 48.9 1.1 SE | 140 4.4 268 207 3.7 81.2 7.5
1/19/22 - 1400 66.8 61.9 53 46.8 0.00 60.7 48.9 1.4 WNW | 293 6.9 268 292 5.1 74.2 7.5
1/19/22 - 1300 62.6 60.0 60 47.0 0.00 60.7 48.8 2.3 W | 276 5.9 269 318 4.7 71.6 7.5
1/19/22 - 1200 60.4 56.3 65 47.0 0.00 60.1 48.7 1.9 SW | 235 6.7 270 320 4.6 68.7 7.5
1/19/22 - 1100 57.1 53.5 75 47.7 0.00 59.5 48.8 0.9 W | 266 3.6 271 172 2.9 64.5 7.5
1/19/22 - 1000 53.6 51.4 90 49.6 0.00 59.0 48.8 0.7 SSW | 210 2.9 273 117 2.1 62.7 7.5
1/19/22 - 0900 51.7 50.2 93 48.9 0.00 58.3 48.8 0.3 N | 11 3.1 292 49 2.0 61.5 7.5
1/19/22 - 0800 50.4 48.9 93 47.8 0.01 58.2 48.9 0.6 SSW | 194 2.6 320 11 1.6 60.6 7.5
1/19/22 - 0700 49.1 48.1 93 46.9 0.00 58.2 48.9 0.6 SW | 230 2.4 311 -1 1.6 59.2 7.5
1/19/22 - 0600 48.4 46.9 93 46.0 0.00 58.4 48.9 0.1 NW | 313 1.9 325 -0 0.9 57.0 7.5
1/19/22 - 0500 47.0 44.6 93 43.4 0.00 58.6 48.9 0.3 SSE | 163 1.7 342 -8 0.0 59.1 7.5
1/19/22 - 0400 46.7 45.1 92 43.8 0.00 58.8 49.0 0.4 SSE | 150 1.8 359 -15 0.0 60.2 7.5
1/19/22 - 0300 47.6 46.2 91 44.5 0.00 58.9 49.1 0.1 S | 190 1.0 376 -17 0.0 59.1 7.5
1/19/22 - 0200 49.1 47.4 90 45.9 0.00 59.0 49.2 0.1 S | 178 1.1 355 -21 0.7 61.2 7.5
1/19/22 - 0100 51.9 48.7 88 47.1 0.00 59.1 49.2 0.3 S | 175 1.6 322 -27 0.0 63.5 7.5
1/19/22 - 0000 52.9 51.6 87 48.6 0.00 59.3 49.2 0.4 SSW | 206 1.6 288 -15 1.3 64.4 7.5
1/18/22 - 2300 52.8 50.6 89 48.4 0.00 59.3 49.3 0.7 SSW | 193 2.7 295 -8 1.9 64.7 7.5
1/18/22 - 2200 50.7 49.4 89 46.9 0.00 59.4 49.4 0.6 S | 188 2.3 322 -19 1.5 65.1 7.5
1/18/22 - 2100 52.2 50.2 86 47.3 0.00 59.4 49.4 0.2 SSW | 200 1.8 316 -42 0.8 66.2 7.5
1/18/22 - 2000 54.0 51.5 83 47.8 0.00 59.4 49.4 0.6 S | 191 2.1 285 -58 1.5 68.1 7.5
1/18/22 - 1900 58.1 53.9 76 48.3 0.00 59.4 49.5 0.9 SSW | 195 2.4 276 -62 1.7 71.4 7.5
1/18/22 - 1800 60.6 57.9 67 48.4 0.00 61.2 49.5 1.1 SW | 217 3.4 271 -46 2.2 73.1 7.5
1/18/22 - 1700 62.8 60.3 61 48.3 0.00 59.4 49.5 2.4 SW | 233 6.2 271 -24 4.7 83.5 7.5
1/18/22 - 1600 63.2 61.8 61 48.9 0.00 58.9 49.4 4.3 SW | 231 8.5 270 75 6.2 84.8 7.5
1/18/22 - 1500 64.0 62.5 60 48.9 0.00 58.7 49.3 3.8 SW | 229 7.7 269 117 5.9 86.0 7.5
1/18/22 - 1400 66.2 63.1 56 49.0 0.00 58.6 49.2 2.6 SW | 236 8.0 269 242 6.5 84.6 7.5
1/18/22 - 1300 66.0 62.4 57 48.7 0.00 58.4 49.1 2.0 SSW | 203 7.3 268 290 4.7 73.1 7.5
1/18/22 - 1200 65.7 60.9 61 49.4 0.00 58.1 49.0 0.9 W | 270 3.1 269 218 3.8 69.7 7.5
1/18/22 - 1100 64.6 60.5 64 50.4 0.00 58.3 49.0 0.8 NNW | 338 4.7 269 340 2.9 66.7 7.5
1/18/22 - 1000 60.5 58.0 75 50.9 0.00 58.4 49.0 1.0 W | 261 3.7 270 217 2.9 63.5 7.5
1/18/22 - 0900 57.9 53.1 91 52.2 0.00 58.4 49.1 0.2 SSW | 211 2.2 271 114 1.5 61.6 7.5
1/18/22 - 0800 53.3 50.5 92 49.6 0.00 59.0 49.2 0.1 S | 178 1.1 313 18 0.0 60.1 7.5
1/18/22 - 0700 51.5 50.1 91 48.2 0.00 58.6 49.3 0.4 S | 178 1.9 331 -3 1.5 60.8 7.5
1/18/22 - 0600 54.5 51.5 90 50.1 0.00 58.7 49.3 0.2 SSW | 195 1.4 305 -4 0.0 61.9 7.5
1/18/22 - 0500 54.6 54.0 91 51.8 0.00 58.9 49.3 0.5 SW | 218 2.7 277 -3 2.2 62.0 7.5
1/18/22 - 0400 54.3 53.8 91 51.6 0.00 58.7 49.4 0.2 S | 187 1.4 284 -3 1.3 62.5 7.5
1/18/22 - 0300 54.9 54.0 91 51.7 0.00 58.9 49.4 0.1 S | 184 1.1 281 -3 0.7 63.2 7.5
1/18/22 - 0200 54.9 54.5 91 52.0 0.00 58.9 49.4 0.3 SSW | 193 1.3 278 -3 0.8 63.2 7.5
1/18/22 - 0100 55.0 54.5 90 52.0 0.00 59.0 49.4 0.2 SSE | 158 1.4 280 -3 0.0 63.6 7.5
1/18/22 - 0000 55.4 54.7 90 52.0 0.00 59.0 49.4 0.4 SSW | 211 1.8 281 -3 0.9 64.7 7.5
1/17/22 - 2300 55.7 55.0 89 52.2 0.01 59.0 49.4 0.0 N | 0 0.0 281 -3 0.0 66.5 7.5
1/17/22 - 2200 55.8 55.4 88 52.2 0.00 59.2 49.4 0.0 SE | 146 0.7 279 -3 0.0 66.9 7.5
1/17/22 - 2100 55.8 55.0 88 51.9 0.00 60.2 49.5 0.1 SSE | 165 1.6 290 -3 0.8 67.0 7.5
1/17/22 - 2000 55.3 54.7 88 51.3 0.00 59.8 49.4 0.5 SSE | 161 2.0 280 -5 1.4 67.1 7.5
1/17/22 - 1900 56.0 55.0 85 51.0 0.00 59.2 49.4 0.6 SW | 221 2.3 292 -5 1.5 68.5 7.5
1/17/22 - 1800 56.4 55.6 84 51.1 0.00 58.9 49.4 0.3 WNW | 300 2.9 295 -5 2.5 70.2 7.5
1/17/22 - 1700 57.3 56.2 83 51.5 0.00 59.0 49.4 0.2 WNW | 299 2.3 302 23 1.5 71.7 7.5
1/17/22 - 1600 58.8 56.5 77 50.1 0.02 58.9 49.4 1.7 S | 175 4.3 360 35 3.4 73.3 7.5
1/17/22 - 1500 62.2 58.5 70 50.3 0.00 58.6 49.1 2.0 SE | 146 6.7 271 41 3.7 74.6 7.5
1/17/22 - 1400 61.8 59.5 65 48.8 0.00 58.6 49.1 2.1 E | 92 8.3 273 160 2.9 74.4 7.5
1/17/22 - 1300 63.3 61.4 59 47.9 0.00 58.3 48.9 2.2 ESE | 115 6.9 269 223 4.6 72.8 7.5
1/17/22 - 1200 62.7 59.6 68 50.2 0.00 58.2 48.8 1.5 NE | 52 4.2 269 312 3.4 70.6 7.5
1/17/22 - 1100 60.6 56.4 78 52.0 0.00 58.2 48.8 1.5 NE | 42 4.2 270 313 2.6 66.6 7.5
1/17/22 - 1000 56.8 53.7 87 51.9 0.00 58.3 48.9 0.8 NNE | 25 3.1 291 177 1.3 63.4 7.5
1/17/22 - 0900 54.8 53.1 85 49.5 0.17 58.3 48.7 0.3 ESE | 110 2.1 455 38 1.0 61.8 7.5
1/17/22 - 0800 54.2 53.0 84 48.9 0.01 58.4 48.2 0.2 SSE | 160 1.5 326 8 0.0 61.9 7.3
1/17/22 - 0700 55.3 54.0 70 45.3 0.01 58.3 48.2 0.4 S | 178 1.9 458 -5 0.8 64.3 7.3
1/17/22 - 0600 54.8 53.9 65 42.9 0.00 60.2 48.1 0.3 SSW | 204 1.8 270 -12 1.1 64.2 7.3
1/17/22 - 0500 55.0 54.0 60 40.9 0.00 59.6 48.1 0.2 SW | 216 1.6 269 -11 1.0 64.2 7.3
1/17/22 - 0400 55.3 53.4 58 39.8 0.00 59.0 48.1 0.3 S | 173 1.6 269 -22 1.2 65.4 7.3
1/17/22 - 0300 56.0 55.2 56 39.9 0.00 58.8 48.2 0.2 S | 175 1.6 269 -19 0.9 66.2 7.3
1/17/22 - 0200 56.9 55.3 54 39.3 0.00 58.5 48.2 1.1 S | 186 3.1 269 -18 1.8 68.6 7.3
1/17/22 - 0100 57.2 55.9 54 40.5 0.00 58.7 48.2 0.7 S | 188 3.0 269 -22 1.9 69.6 7.3
1/17/22 - 0000 57.2 56.4 53 39.9 0.00 58.6 48.2 0.3 S | 170 1.3 269 -13 1.5 70.0 7.3
1/16/22 - 2300 58.2 56.9 51 39.4 0.00 58.8 48.2 0.3 SSE | 167 1.7 268 -23 0.9 70.1 7.3
1/16/22 - 2200 58.2 57.0 48 38.2 0.00 58.5 48.2 0.2 SSE | 160 1.3 268 -19 0.0 71.3 7.3
1/16/22 - 2100 60.1 56.9 45 37.2 0.00 58.6 48.2 0.4 SSE | 167 1.9 267 -42 1.3 73.9 7.3
1/16/22 - 2000 63.2 60.0 41 37.6 0.00 58.5 48.2 0.4 S | 174 1.6 266 -39 1.2 76.0 7.3
1/16/22 - 1900 65.4 63.0 35 36.4 0.00 58.4 48.2 0.8 S | 173 2.5 266 -26 2.4 86.0 7.3
1/16/22 - 1800 68.2 65.2 32 35.4 0.00 58.4 48.2 1.0 SSW | 202 3.0 266 -30 2.3 90.1 7.3
1/16/22 - 1700 73.0 68.2 28 36.1 0.00 57.9 48.1 1.8 S | 182 4.9 265 2 4.2 91.2 7.4
1/16/22 - 1600 72.0 70.5 27 35.8 0.00 57.6 48.0 2.3 S | 181 5.0 265 47 3.4 90.0 7.4
1/16/22 - 1500 74.4 71.8 29 39.3 0.00 57.3 47.9 1.4 E | 98 5.4 265 74 3.8 89.3 7.4
1/16/22 - 1400 76.6 73.9 25 37.0 0.00 57.2 47.8 1.4 NE | 48 4.7 264 304 2.8 78.3 7.4
1/16/22 - 1300 75.4 72.0 22 32.1 0.00 57.1 47.7 1.0 NNE | 22 4.6 263 268 3.2 72.1 7.4
1/16/22 - 1200 73.4 70.9 20 28.7 0.00 56.8 47.5 1.0 N | 10 4.2 263 340 2.3 69.0 7.4
1/16/22 - 1100 71.3 67.8 22 29.1 0.00 57.0 47.6 0.7 NE | 51 2.7 264 248 2.8 64.2 7.4
1/16/22 - 1000 68.3 63.4 29 32.2 0.00 57.2 47.5 1.2 W | 278 3.8 264 218 3.6 60.9 7.4
1/16/22 - 0900 63.5 53.0 45 37.0 0.00 57.2 47.7 0.2 NE | 38 1.4 266 124 1.2 58.3 7.4
1/16/22 - 0800 53.4 47.7 56 34.1 0.00 57.4 47.7 0.1 SE | 132 1.0 270 -19 0.0 58.0 7.4
1/16/22 - 0700 49.1 47.8 56 33.5 0.00 57.5 47.8 0.2 SSE | 156 1.0 270 -49 0.5 59.6 7.4
1/16/22 - 0600 51.9 49.0 55 34.9 0.00 57.6 47.8 0.3 SSE | 157 1.4 270 -50 1.0 62.3 7.4
1/16/22 - 0500 53.4 51.8 55 36.9 0.00 57.6 47.9 0.2 SSE | 148 1.7 270 -36 0.0 63.4 7.4
1/16/22 - 0400 53.5 52.3 57 37.8 0.00 57.8 47.9 0.2 SSE | 148 1.2 270 -17 0.6 64.1 7.4
1/16/22 - 0300 54.0 52.5 57 38.4 0.00 57.7 47.9 0.1 SSE | 156 0.9 270 -33 0.0 64.6 7.4
1/16/22 - 0200 55.3 54.0 60 41.0 0.00 57.7 47.9 0.2 SSE | 167 1.4 271 -22 0.6 64.8 7.4
1/16/22 - 0100 56.6 55.0 57 40.8 0.00 57.7 47.9 0.1 SSE | 165 1.8 270 -19 1.1 66.4 7.4
1/16/22 - 0000 56.9 55.5 62 43.4 0.00 57.6 47.9 0.4 SSE | 158 2.3 270 -6 1.6 66.8 7.4
1/15/22 - 2300 56.1 55.4 66 44.6 0.00 57.9 48.0 0.4 S | 171 2.3 271 -11 2.0 67.8 7.4
1/15/22 - 2200 56.1 55.5 70 46.3 0.00 58.5 48.0 0.1 S | 182 1.1 271 -10 0.6 69.0 7.4
1/15/22 - 2100 56.0 55.2 69 45.7 0.00 57.8 48.0 0.7 SSE | 160 3.3 281 -6 1.1 69.8 7.4
1/15/22 - 2000 57.7 55.4 63 43.9 0.01 55.6 48.0 0.8 S | 179 3.7 297 -10 1.9 69.6 7.4
1/15/22 - 1900 58.2 56.2 57 42.3 0.00 56.1 48.0 3.0 SW | 230 6.2 269 -10 5.1 72.2 7.4
1/15/22 - 1800 62.0 56.2 60 44.0 0.01 55.6 48.1 4.6 SSW | 207 8.5 269 -12 6.2 76.6 7.4
1/15/22 - 1700 65.6 62.0 35 36.3 0.00 56.8 47.9 1.5 SSW | 197 6.0 279 -14 4.5 80.6 7.4
1/15/22 - 1600 70.2 65.3 24 29.6 0.00 57.2 47.8 2.1 SSW | 203 6.9 266 47 4.8 81.8 7.4
1/15/22 - 1500 71.7 69.9 20 27.8 0.00 58.4 47.7 0.8 ENE | 68 4.4 264 164 2.2 79.7 7.4
1/15/22 - 1400 72.0 67.2 23 29.7 0.00 57.7 47.6 0.8 NNE | 13 3.4 264 225 3.2 76.6 7.4
1/15/22 - 1300 67.5 65.2 30 34.3 0.00 58.1 47.6 1.1 NNW | 344 4.7 265 208 3.8 72.1 7.4
1/15/22 - 1200 65.3 61.7 43 40.5 0.00 58.6 47.6 1.9 W | 260 5.4 266 137 4.4 67.8 7.4
1/15/22 - 1100 62.1 59.3 58 45.4 0.00 59.1 47.6 1.0 SSW | 193 3.8 274 109 2.9 66.2 7.4
1/15/22 - 1000 61.0 59.9 45 38.8 0.00 59.2 47.7 0.3 E | 99 2.0 389 39 1.3 64.1 7.4
1/15/22 - 0900 60.5 56.8 40 34.4 0.00 58.6 47.6 0.4 SE | 128 3.1 266 39 1.0 62.8 7.4
1/15/22 - 0800 57.3 55.5 36 29.5 0.00 58.2 47.6 0.8 SSE | 155 2.6 266 -5 1.7 61.7 7.4
1/15/22 - 0700 56.7 54.9 36 29.0 0.00 57.5 47.7 1.1 SSE | 160 3.0 266 -28 1.9 61.5 7.4
1/15/22 - 0600 57.7 55.7 34 28.5 0.00 57.1 47.7 0.9 SSE | 153 2.3 266 -28 1.9 62.3 7.4
1/15/22 - 0500 57.7 56.9 33 28.3 0.00 57.0 47.7 0.9 SSE | 151 2.8 266 -23 1.4 64.1 7.4
1/15/22 - 0400 57.9 56.4 32 28.0 0.00 57.0 47.7 0.7 SSE | 161 2.4 266 -23 1.9 64.9 7.4
1/15/22 - 0300 56.9 56.0 34 28.1 0.00 57.1 47.7 1.0 SSE | 150 2.4 266 -27 1.6 65.1 7.4
1/15/22 - 0200 56.8 55.2 34 27.7 0.00 57.2 47.8 0.6 SSE | 158 2.7 266 -30 1.5 64.8 7.4
1/15/22 - 0100 56.6 55.3 33 27.0 0.00 57.2 47.8 0.9 SSE | 154 2.3 266 -40 1.6 64.7 7.4
1/15/22 - 0000 58.5 55.7 31 26.5 0.00 57.2 47.8 1.2 SSE | 154 2.7 266 -52 2.4 65.1 7.4
1/14/22 - 2300 60.7 57.9 27 25.3 0.00 57.2 47.8 1.0 S | 173 2.9 265 -55 2.5 66.1 7.4
1/14/22 - 2200 65.6 59.4 22 23.6 0.00 57.0 47.8 1.2 S | 183 3.5 265 -53 2.6 69.6 7.4
1/14/22 - 2100 66.7 65.0 18 21.3 0.00 57.3 47.8 0.8 N | 10 4.7 264 -64 3.0 69.9 7.4
1/14/22 - 2000 67.4 62.2 18 21.0 0.00 54.5 47.8 1.5 NNW | 341 7.0 264 -62 2.8 71.3 7.4
1/14/22 - 1900 69.5 65.5 16 20.3 0.00 56.1 47.8 1.3 NNE | 20 6.5 264 -70 3.3 73.7 7.4
1/14/22 - 1800 72.0 68.9 15 21.0 0.00 54.4 47.8 2.2 N | 5 8.8 264 -83 2.6 77.0 7.5
1/14/22 - 1700 75.6 71.7 14 22.3 0.00 55.6 47.7 2.6 N | 7 9.9 263 -33 4.3 79.7 7.5
1/14/22 - 1600 76.8 75.1 14 23.0 0.00 54.0 47.7 2.5 N | 1 7.7 263 47 4.1 80.6 7.5
1/14/22 - 1500 78.7 76.7 13 23.8 0.00 53.7 47.5 2.2 N | 3 7.9 262 210 3.3 80.5 7.5
1/14/22 - 1400 78.2 75.2 14 23.7 0.00 53.3 47.4 1.6 NNE | 24 5.9 262 265 4.4 74.0 7.5
1/14/22 - 1300 75.4 73.0 17 27.0 0.00 53.6 47.3 2.2 ENE | 70 7.1 263 296 3.8 69.2 7.5
1/14/22 - 1200 73.8 69.4 20 29.1 0.00 53.4 47.1 2.2 ENE | 61 7.8 264 341 3.3 65.0 7.5
1/14/22 - 1100 70.9 67.7 23 29.5 0.00 53.2 47.1 2.8 NE | 37 9.3 264 270 3.6 60.6 7.5
1/14/22 - 1000 69.0 61.1 23 26.7 0.00 53.4 47.2 2.3 NNW | 341 9.0 264 176 5.4 56.6 7.5
1/14/22 - 0900 61.0 46.9 54 35.7 0.00 53.5 47.3 1.0 S | 187 5.4 266 67 4.4 53.9 7.5
1/14/22 - 0800 47.3 42.4 67 33.7 0.00 54.3 47.3 0.5 SSE | 162 2.5 270 -45 1.4 56.6 7.5
1/14/22 - 0700 45.9 43.2 64 33.1 0.00 56.4 47.4 0.2 S | 171 1.4 270 -57 0.0 56.5 7.5
1/14/22 - 0600 47.6 45.8 64 35.2 0.00 56.8 47.5 0.1 SSE | 168 0.9 270 -49 0.0 56.9 7.5
1/14/22 - 0500 48.6 47.4 61 35.4 0.00 56.2 47.5 0.1 S | 176 0.9 269 -40 0.0 58.2 7.5
1/14/22 - 0400 49.9 48.2 59 35.6 0.00 56.2 47.5 0.3 SSE | 151 1.4 269 -39 1.0 60.4 7.5
1/14/22 - 0300 51.9 49.3 59 37.0 0.00 56.4 47.5 0.3 SSE | 163 2.0 269 -44 1.5 62.1 7.5
1/14/22 - 0200 52.8 51.7 58 37.9 0.00 56.5 47.6 0.3 S | 177 1.3 269 -27 0.8 62.7 7.5
1/14/22 - 0100 54.8 52.4 56 38.1 0.00 56.2 47.6 0.2 S | 173 1.7 269 -36 0.9 63.0 7.5
1/14/22 - 0000 55.8 54.7 54 38.7 0.00 54.1 47.6 0.5 S | 185 2.7 268 -21 1.5 62.7 7.5
1/13/22 - 2300 56.7 55.5 51 38.4 0.00 54.0 47.6 0.5 SSE | 167 2.5 268 -20 1.7 63.9 7.5
1/13/22 - 2200 58.6 56.6 47 37.7 0.00 55.0 47.6 0.6 S | 175 2.7 267 -25 2.2 65.7 7.5
1/13/22 - 2100 58.6 57.8 48 38.5 0.00 57.2 47.7 0.9 S | 188 3.7 267 -19 2.0 66.6 7.5
1/13/22 - 2000 59.7 58.0 45 37.8 0.00 58.0 47.6 0.6 S | 190 2.7 267 -17 1.6 67.3 7.5
1/13/22 - 1900 63.0 59.6 39 35.8 0.00 58.2 47.6 0.3 S | 185 2.1 266 -21 0.9 68.1 7.5
1/13/22 - 1800 65.0 61.9 36 35.2 0.00 58.7 47.6 0.3 SSE | 167 1.8 266 -23 1.6 68.5 7.5
1/13/22 - 1700 66.4 64.9 29 32.7 0.00 58.3 47.6 1.4 SW | 228 4.1 266 -11 2.9 68.5 7.5
1/13/22 - 1600 68.4 66.3 27 32.2 0.00 57.6 47.5 0.7 SW | 226 2.5 265 13 1.8 68.1 7.5
1/13/22 - 1500 69.4 66.2 26 32.3 0.00 57.4 47.4 1.1 ENE | 65 3.5 265 146 1.8 67.1 7.5
1/13/22 - 1400 66.8 65.3 31 34.3 0.00 56.8 47.4 0.4 NW | 308 1.9 266 73 1.6 64.8 7.5
1/13/22 - 1300 65.6 62.9 30 32.4 0.00 55.5 47.4 1.9 SW | 221 4.3 266 75 3.2 63.1 7.5
1/13/22 - 1200 63.0 60.7 37 35.3 0.00 55.6 47.3 0.9 SSW | 205 3.7 266 98 2.3 60.6 7.6
1/13/22 - 1100 60.9 57.6 44 37.3 0.00 53.8 47.4 0.8 NNE | 14 3.7 266 58 2.4 58.9 7.6
1/13/22 - 1000 57.8 54.2 48 36.8 0.00 55.5 47.4 1.0 SE | 138 3.2 267 40 2.4 58.4 7.6
1/13/22 - 0900 54.7 53.3 51 36.3 0.00 55.5 47.4 0.5 ESE | 122 3.9 268 12 1.8 58.1 7.6
1/13/22 - 0800 53.4 51.4 50 34.1 0.00 55.6 47.4 0.8 SE | 146 3.3 267 -1 2.3 57.2 7.6
1/13/22 - 0700 52.5 50.2 51 33.6 0.00 55.5 47.4 1.1 SSW | 194 3.6 267 -25 2.1 58.5 7.6
1/13/22 - 0600 51.4 50.2 52 33.8 0.00 55.8 47.5 0.5 SE | 146 3.4 268 -21 1.4 59.5 7.6
1/13/22 - 0500 51.4 50.3 52 33.7 0.00 55.7 47.5 0.5 S | 175 3.8 268 -22 1.2 59.6 7.6
1/13/22 - 0400 52.6 51.2 48 32.9 0.00 55.6 47.5 0.5 SSE | 149 2.3 267 -25 1.7 59.7 7.6
1/13/22 - 0300 52.9 50.9 48 33.0 0.00 55.9 47.5 1.0 SSE | 158 3.5 267 -22 1.5 59.3 7.6
1/13/22 - 0200 52.1 51.0 48 32.6 0.00 55.8 47.5 0.4 SSE | 152 2.5 267 -22 2.0 59.7 7.6
1/13/22 - 0100 51.6 50.8 47 31.7 0.00 55.9 47.6 0.1 S | 175 1.3 267 -24 0.8 60.5 7.6
1/13/22 - 0000 52.4 50.8 47 31.7 0.00 56.0 47.6 0.4 SSE | 151 1.9 267 -35 1.6 61.9 7.6
1/12/22 - 2300 52.9 51.7 45 31.9 0.00 56.0 47.6 0.5 SSE | 150 2.0 267 -35 1.9 64.3 7.6
1/12/22 - 2200 54.0 52.2 42 30.7 0.00 56.0 47.6 0.3 S | 169 2.7 267 -36 2.2 65.9 7.6
1/12/22 - 2100 54.8 53.5 40 30.5 0.00 56.0 47.6 0.8 S | 170 4.1 266 -42 2.7 67.4 7.6
1/12/22 - 2000 57.2 53.7 38 30.5 0.00 55.9 47.6 0.7 SSE | 168 2.7 266 -51 2.3 69.3 7.6
1/12/22 - 1900 60.2 57.1 33 29.6 0.00 55.8 47.6 0.7 SSE | 159 3.3 266 -52 2.1 69.6 7.6
1/12/22 - 1800 65.0 59.9 30 30.8 0.00 55.6 47.6 1.1 SSE | 158 3.4 266 -57 1.9 71.6 7.6
1/12/22 - 1700 73.8 64.9 22 28.3 0.00 55.3 47.6 0.8 S | 179 3.1 264 -41 2.0 73.2 7.6
1/12/22 - 1600 79.6 73.8 14 24.8 0.00 55.1 47.4 0.9 SSE | 159 3.5 263 52 2.7 73.0 7.6
1/12/22 - 1500 77.9 75.4 14 23.3 0.00 54.6 47.3 1.3 SW | 225 3.2 262 118 2.5 70.4 7.6
1/12/22 - 1400 77.5 73.8 13 21.8 0.00 54.4 47.1 1.8 SW | 219 4.9 262 181 4.5 67.3 7.6
1/12/22 - 1300 75.4 73.0 14 21.1 0.00 54.3 47.1 1.6 SW | 214 5.5 262 234 4.4 63.7 7.6
1/12/22 - 1200 75.5 69.8 15 22.0 0.00 54.2 47.1 0.5 SE | 143 2.6 262 233 1.8 59.5 7.6
1/12/22 - 1100 70.5 60.6 25 28.3 0.00 53.1 47.1 0.9 SE | 135 3.2 263 219 2.1 55.6 7.6
1/12/22 - 1000 60.5 50.2 45 33.0 0.00 54.1 47.1 0.2 NE | 44 2.7 266 131 1.3 52.0 7.6
1/12/22 - 0900 50.3 44.7 50 29.5 0.00 53.5 47.1 0.5 S | 181 2.6 267 26 1.9 49.8 7.6
1/12/22 - 0800 45.0 42.7 50 26.2 0.00 52.9 47.1 0.3 SSE | 167 2.3 267 -31 2.2 50.6 7.6
1/12/22 - 0700 45.7 43.4 46 24.9 0.00 52.9 47.2 0.4 SSE | 160 2.4 267 -53 1.7 51.8 7.6
1/12/22 - 0600 47.5 43.4 44 24.3 0.00 54.4 47.2 0.4 SSE | 151 2.1 267 -56 1.8 53.5 7.6
1/12/22 - 0500 48.1 46.6 38 23.0 0.00 56.3 47.3 0.4 SSE | 156 1.9 267 -55 1.4 54.9 7.6
1/12/22 - 0400 47.6 45.8 39 23.0 0.00 57.7 47.4 0.6 S | 180 3.1 267 -57 2.3 55.5 7.6
1/12/22 - 0300 51.1 47.0 34 21.7 0.00 55.5 47.4 0.7 S | 176 3.0 266 -59 2.7 57.6 7.6
1/12/22 - 0200 53.2 50.6 28 19.7 0.00 55.5 47.4 1.0 SSE | 161 3.5 266 -61 2.9 58.4 7.6
1/12/22 - 0100 51.2 48.0 32 20.5 0.00 55.8 47.5 0.9 S | 173 3.5 266 -60 3.1 59.3 7.6
1/12/22 - 0000 51.8 47.9 31 20.0 0.00 55.9 47.6 0.6 S | 169 2.3 266 -62 1.9 60.7 7.6
1/11/22 - 2300 52.0 50.3 28 19.3 0.00 55.9 47.6 1.0 SSE | 155 2.5 265 -65 2.0 62.5 7.6
1/11/22 - 2200 52.5 50.6 28 19.4 0.00 55.9 47.6 0.8 S | 177 2.8 265 -67 2.3 64.5 7.6
1/11/22 - 2100 56.8 52.0 25 19.2 0.00 55.9 47.6 1.1 SSE | 152 3.1 264 -71 1.8 65.8 7.6
1/11/22 - 2000 63.0 56.7 18 15.8 0.00 55.7 47.7 1.3 SSE | 156 4.0 264 -78 3.3 67.5 7.6
1/11/22 - 1900 68.1 63.0 11 10.6 0.00 55.3 47.6 2.1 NNE | 24 11.0 263 -90 3.5 68.8 7.7
1/11/22 - 1800 69.0 67.7 10 9.5 0.00 54.3 47.6 4.0 N | 9 12.0 262 -94 4.9 69.7 7.7
1/11/22 - 1700 71.8 68.7 10 11.3 0.00 54.5 47.6 3.5 N | 4 10.0 262 -63 4.8 70.9 7.7
1/11/22 - 1600 74.5 71.6 10 12.6 0.00 54.0 47.5 4.1 N | 7 12.4 262 60 5.0 71.2 7.7
1/11/22 - 1500 75.9 74.2 8 10.6 0.00 53.5 47.4 3.9 N | 6 12.5 261 186 7.0 71.0 7.7
1/11/22 - 1400 75.9 74.0 9 12.7 0.00 54.5 47.3 3.5 N | 2 12.2 262 276 5.3 70.6 7.7
1/11/22 - 1300 75.1 72.8 10 14.1 0.00 56.5 47.2 3.4 N | 8 11.0 262 331 5.4 66.5 7.7
1/11/22 - 1200 72.9 69.8 12 15.6 0.00 56.4 47.1 4.4 N | 4 14.7 262 339 6.8 62.2 7.7
1/11/22 - 1100 70.5 67.0 14 16.9 0.00 54.1 47.1 4.4 N | 6 12.3 262 294 5.6 57.2 7.7
1/11/22 - 1000 67.2 63.7 16 18.2 0.00 54.1 47.1 2.2 NNE | 20 10.5 263 205 6.9 52.1 7.7
1/11/22 - 0900 64.0 57.4 19 18.3 0.00 54.3 47.2 1.3 NE | 43 5.4 263 94 4.6 49.2 7.7
1/11/22 - 0800 57.8 47.4 26 18.7 0.00 54.5 47.2 1.6 S | 178 6.2 266 -52 4.3 48.0 7.7
1/11/22 - 0700 53.1 46.3 31 20.4 0.00 54.6 47.3 2.3 S | 189 5.2 267 -65 3.4 47.5 7.7
1/11/22 - 0600 54.7 44.4 33 20.2 0.00 54.9 47.3 1.8 SSW | 194 5.8 267 -63 4.2 47.6 7.8
1/11/22 - 0500 47.2 44.3 40 22.4 0.00 55.1 47.3 1.0 SSE | 156 3.2 267 -64 1.9 49.4 7.8
1/11/22 - 0400 48.9 45.7 35 21.6 0.00 55.0 47.4 1.5 SSE | 160 4.0 267 -66 2.6 51.5 7.8
1/11/22 - 0300 52.9 48.1 30 20.3 0.00 55.1 47.4 1.3 SSE | 158 5.8 267 -67 4.2 52.7 7.8
1/11/22 - 0200 57.3 49.2 26 19.2 0.00 55.4 47.5 1.0 SSE | 160 4.5 266 -71 2.7 53.3 7.8
1/11/22 - 0100 57.4 54.0 23 18.2 0.00 55.2 47.6 1.7 SSE | 161 4.6 265 -73 3.8 55.6 7.8
1/11/22 - 0000 56.4 52.5 25 19.7 0.00 55.4 47.6 1.7 S | 184 5.8 266 -71 4.3 56.3 7.8
1/10/22 - 2300 55.7 50.9 27 20.8 0.00 55.6 47.6 1.4 S | 186 4.1 266 -70 3.2 57.2 7.8
1/10/22 - 2200 54.2 51.4 31 22.6 0.00 55.6 47.7 1.2 SSE | 156 4.3 266 -70 2.3 59.6 7.8
1/10/22 - 2100 58.8 53.6 26 21.6 0.00 55.6 47.7 1.1 S | 171 3.7 266 -72 3.0 60.8 7.8
1/10/22 - 2000 62.5 58.5 20 19.5 0.00 55.4 47.7 1.6 NNE | 33 6.6 264 -82 4.7 62.0 7.8
1/10/22 - 1900 63.1 62.3 19 19.8 0.00 55.3 47.7 2.9 N | 7 8.8 264 -73 5.2 62.8 7.8
1/10/22 - 1800 63.6 62.8 19 20.0 0.00 55.2 47.7 2.3 N | 3 9.9 264 -57 6.6 64.1 7.8
1/10/22 - 1700 64.8 63.5 18 20.0 0.00 55.0 47.6 2.8 N | 3 10.1 264 -43 4.4 65.8 7.8
1/10/22 - 1600 66.0 64.6 18 20.5 0.00 55.1 47.6 4.0 N | 5 14.1 264 1 6.2 67.2 7.8
1/10/22 - 1500 67.9 65.8 17 20.7 0.00 54.7 47.6 4.4 N | 8 13.0 264 190 6.1 68.3 7.8
1/10/22 - 1400 67.7 65.4 17 20.7 0.00 54.6 47.5 4.2 N | 7 12.3 263 271 5.4 65.3 7.8
1/10/22 - 1300 66.7 64.8 18 21.0 0.00 54.4 47.4 3.3 N | 5 10.2 263 258 5.3 63.6 7.9
1/10/22 - 1200 65.1 63.3 19 20.8 0.00 54.2 47.4 3.9 N | 5 12.7 264 214 6.7 59.9 7.9
1/10/22 - 1100 65.4 63.3 19 21.2 0.00 54.2 47.3 2.2 NNE | 15 10.1 264 185 5.7 57.7 7.9
1/10/22 - 1000 63.6 60.3 21 21.6 0.00 54.4 47.3 1.4 ENE | 65 5.9 264 110 4.4 54.3 7.9
1/10/22 - 0900 60.4 55.7 25 22.1 0.00 54.5 47.4 0.9 NE | 53 5.8 266 34 5.4 52.0 7.9
1/10/22 - 0800 57.3 51.2 30 23.1 0.00 54.5 47.4 1.1 SE | 137 4.1 266 -27 4.6 50.6 7.9
1/10/22 - 0700 53.5 49.4 34 24.2 0.00 54.6 47.4 1.5 SSE | 152 4.8 267 -39 3.3 50.1 7.9
1/10/22 - 0600 50.8 48.3 38 24.9 0.00 54.9 47.5 1.6 SSE | 160 4.2 267 -51 3.6 51.0 7.9
1/10/22 - 0500 54.1 49.1 33 23.2 0.00 55.0 47.5 1.3 S | 171 3.5 267 -60 3.3 53.4 7.9
1/10/22 - 0400 55.5 52.8 29 22.5 0.00 54.8 47.6 1.4 SSE | 168 6.2 267 -57 6.5 54.9 7.9